sensor_id;sensor_type;location;lat;lon;timestamp;temperature;humidity
26707;DHT22;14319;49.422;10.934;2023-10-31T00:00:16;13.40;99.90
26707;DHT22;14319;49.422;10.934;2023-10-31T00:02:17;13.40;99.90
26707;DHT22;14319;49.422;10.934;2023-10-31T00:04:17;13.20;99.90
26707;DHT22;14319;49.422;10.934;2023-10-31T00:06:18;13.20;99.90
26707;DHT22;14319;49.422;10.934;2023-10-31T00:08:19;13.00;99.90
26707;DHT22;14319;49.422;10.934;2023-10-31T00:10:19;13.00;99.90
26707;DHT22;14319;49.422;10.934;2023-10-31T00:12:20;13.00;99.90
26707;DHT22;14319;49.422;10.934;2023-10-31T00:14:20;13.10;99.90
26707;DHT22;14319;49.422;10.934;2023-10-31T00:16:21;13.10;99.90
26707;DHT22;14319;49.422;10.934;2023-10-31T00:18:22;13.10;99.90
26707;DHT22;14319;49.422;10.934;2023-10-31T00:20:22;13.10;99.90
26707;DHT22;14319;49.422;10.934;2023-10-31T00:22:23;13.10;99.90
26707;DHT22;14319;49.422;10.934;2023-10-31T00:24:24;12.80;99.90
26707;DHT22;14319;49.422;10.934;2023-10-31T00:26:24;12.90;99.90
26707;DHT22;14319;49.422;10.934;2023-10-31T00:28:27;13.00;99.90
26707;DHT22;14319;49.422;10.934;2023-10-31T00:30:28;13.00;99.90
26707;DHT22;14319;49.422;10.934;2023-10-31T00:32:28;13.10;99.90
26707;DHT22;14319;49.422;10.934;2023-10-31T00:34:29;13.00;99.90
26707;DHT22;14319;49.422;10.934;2023-10-31T00:36:29;12.90;99.90
26707;DHT22;14319;49.422;10.934;2023-10-31T00:38:30;12.90;99.90
26707;DHT22;14319;49.422;10.934;2023-10-31T00:40:30;12.80;99.90
26707;DHT22;14319;49.422;10.934;2023-10-31T00:42:31;12.80;99.90
26707;DHT22;14319;49.422;10.934;2023-10-31T00:44:32;12.80;99.90
26707;DHT22;14319;49.422;10.934;2023-10-31T00:46:32;12.90;99.90
26707;DHT22;14319;49.422;10.934;2023-10-31T00:48:33;13.00;99.90
26707;DHT22;14319;49.422;10.934;2023-10-31T00:50:36;12.90;99.90
26707;DHT22;14319;49.422;10.934;2023-10-31T00:52:37;12.90;99.90
26707;DHT22;14319;49.422;10.934;2023-10-31T00:54:38;12.80;99.90
26707;DHT22;14319;49.422;10.934;2023-10-31T00:56:38;12.70;99.90
26707;DHT22;14319;49.422;10.934;2023-10-31T00:58:39;12.60;99.90
26707;DHT22;14319;49.422;10.934;2023-10-31T01:00:41;12.60;99.90
26707;DHT22;14319;49.422;10.934;2023-10-31T01:02:41;12.70;99.90
26707;DHT22;14319;49.422;10.934;2023-10-31T01:04:42;12.90;99.90
26707;DHT22;14319;49.422;10.934;2023-10-31T01:06:43;12.90;99.90
26707;DHT22;14319;49.422;10.934;2023-10-31T01:08:44;12.80;99.90
26707;DHT22;14319;49.422;10.934;2023-10-31T01:10:45;12.90;99.90
26707;DHT22;14319;49.422;10.934;2023-10-31T01:12:47;12.90;99.90
26707;DHT22;14319;49.422;10.934;2023-10-31T01:14:47;12.70;99.90
26707;DHT22;14319;49.422;10.934;2023-10-31T01:16:48;12.60;99.90
26707;DHT22;14319;49.422;10.934;2023-10-31T01:18:48;12.40;99.90
26707;DHT22;14319;49.422;10.934;2023-10-31T01:20:49;12.40;99.90
26707;DHT22;14319;49.422;10.934;2023-10-31T01:22:49;12.40;99.90
26707;DHT22;14319;49.422;10.934;2023-10-31T01:24:50;12.50;99.90
26707;DHT22;14319;49.422;10.934;2023-10-31T01:26:50;12.40;99.90
26707;DHT22;14319;49.422;10.934;2023-10-31T01:28:52;12.30;99.90
26707;DHT22;14319;49.422;10.934;2023-10-31T01:30:52;12.30;99.90
26707;DHT22;14319;49.422;10.934;2023-10-31T01:32:53;12.30;99.90
26707;DHT22;14319;49.422;10.934;2023-10-31T01:34:54;12.30;99.90
26707;DHT22;14319;49.422;10.934;2023-10-31T01:36:54;12.30;99.90
26707;DHT22;14319;49.422;10.934;2023-10-31T01:38:55;12.20;99.90
26707;DHT22;14319;49.422;10.934;2023-10-31T01:40:55;12.20;99.90
26707;DHT22;14319;49.422;10.934;2023-10-31T01:42:56;12.20;99.90
26707;DHT22;14319;49.422;10.934;2023-10-31T01:44:56;12.20;99.90
26707;DHT22;14319;49.422;10.934;2023-10-31T01:46:57;12.20;99.90
26707;DHT22;14319;49.422;10.934;2023-10-31T01:48:58;12.20;99.90
26707;DHT22;14319;49.422;10.934;2023-10-31T01:50:59;12.30;99.90
26707;DHT22;14319;49.422;10.934;2023-10-31T01:53:01;12.40;99.90
26707;DHT22;14319;49.422;10.934;2023-10-31T01:55:03;12.50;99.90
26707;DHT22;14319;49.422;10.934;2023-10-31T01:57:05;12.50;99.90
26707;DHT22;14319;49.422;10.934;2023-10-31T01:59:06;12.40;99.90
26707;DHT22;14319;49.422;10.934;2023-10-31T02:01:07;12.50;99.90
26707;DHT22;14319;49.422;10.934;2023-10-31T02:03:07;12.30;99.90
26707;DHT22;14319;49.422;10.934;2023-10-31T02:05:09;12.30;99.90
26707;DHT22;14319;49.422;10.934;2023-10-31T02:07:09;12.30;99.90
26707;DHT22;14319;49.422;10.934;2023-10-31T02:09:10;12.30;99.90
26707;DHT22;14319;49.422;10.934;2023-10-31T02:11:11;12.40;99.90
26707;DHT22;14319;49.422;10.934;2023-10-31T02:13:15;12.30;99.90
26707;DHT22;14319;49.422;10.934;2023-10-31T02:15:16;12.20;99.90
26707;DHT22;14319;49.422;10.934;2023-10-31T02:17:16;12.00;99.90
26707;DHT22;14319;49.422;10.934;2023-10-31T02:19:20;12.20;99.90
26707;DHT22;14319;49.422;10.934;2023-10-31T02:21:21;12.00;99.90
26707;DHT22;14319;49.422;10.934;2023-10-31T02:23:21;12.00;99.90
26707;DHT22;14319;49.422;10.934;2023-10-31T02:25:22;11.90;99.90
26707;DHT22;14319;49.422;10.934;2023-10-31T02:27:23;11.80;99.90
26707;DHT22;14319;49.422;10.934;2023-10-31T02:29:23;11.80;99.90
26707;DHT22;14319;49.422;10.934;2023-10-31T02:31:25;11.70;99.90
26707;DHT22;14319;49.422;10.934;2023-10-31T02:33:26;11.90;99.90
26707;DHT22;14319;49.422;10.934;2023-10-31T02:35:26;12.00;99.90
26707;DHT22;14319;49.422;10.934;2023-10-31T02:37:27;12.00;99.90
26707;DHT22;14319;49.422;10.934;2023-10-31T02:39:27;11.80;99.90
26707;DHT22;14319;49.422;10.934;2023-10-31T02:41:28;11.90;99.90
26707;DHT22;14319;49.422;10.934;2023-10-31T02:43:29;11.90;99.90
26707;DHT22;14319;49.422;10.934;2023-10-31T02:45:29;11.90;99.90
26707;DHT22;14319;49.422;10.934;2023-10-31T02:47:30;12.00;99.20
26707;DHT22;14319;49.422;10.934;2023-10-31T02:49:31;12.10;99.90
26707;DHT22;14319;49.422;10.934;2023-10-31T02:51:31;12.00;99.10
26707;DHT22;14319;49.422;10.934;2023-10-31T02:53:32;12.10;99.80
26707;DHT22;14319;49.422;10.934;2023-10-31T02:55:32;11.90;98.70
26707;DHT22;14319;49.422;10.934;2023-10-31T02:57:33;11.90;99.30
26707;DHT22;14319;49.422;10.934;2023-10-31T02:59:33;11.80;99.90
26707;DHT22;14319;49.422;10.934;2023-10-31T03:01:35;12.00;99.90
26707;DHT22;14319;49.422;10.934;2023-10-31T03:03:36;11.80;98.20
26707;DHT22;14319;49.422;10.934;2023-10-31T03:05:37;11.90;99.70
26707;DHT22;14319;49.422;10.934;2023-10-31T03:07:37;11.80;98.80
26707;DHT22;14319;49.422;10.934;2023-10-31T03:09:38;11.90;99.90
26707;DHT22;14319;49.422;10.934;2023-10-31T03:11:38;11.90;98.40
26707;DHT22;14319;49.422;10.934;2023-10-31T03:13:39;11.80;98.20
26707;DHT22;14319;49.422;10.934;2023-10-31T03:15:40;11.80;95.80
26707;DHT22;14319;49.422;10.934;2023-10-31T03:17:40;11.50;95.80
26707;DHT22;14319;49.422;10.934;2023-10-31T03:19:41;11.50;96.30
26707;DHT22;14319;49.422;10.934;2023-10-31T03:21:41;11.40;95.60
26707;DHT22;14319;49.422;10.934;2023-10-31T03:23:46;11.40;96.20
26707;DHT22;14319;49.422;10.934;2023-10-31T03:25:47;11.30;98.40
26707;DHT22;14319;49.422;10.934;2023-10-31T03:27:47;11.30;96.80
26707;DHT22;14319;49.422;10.934;2023-10-31T03:29:48;11.40;96.40
26707;DHT22;14319;49.422;10.934;2023-10-31T03:31:49;11.50;96.90
26707;DHT22;14319;49.422;10.934;2023-10-31T03:33:50;11.50;95.30
26707;DHT22;14319;49.422;10.934;2023-10-31T03:35:51;11.60;95.20
26707;DHT22;14319;49.422;10.934;2023-10-31T03:37:52;11.40;94.90
26707;DHT22;14319;49.422;10.934;2023-10-31T03:39:52;11.20;94.00
26707;DHT22;14319;49.422;10.934;2023-10-31T03:41:53;11.00;94.30
26707;DHT22;14319;49.422;10.934;2023-10-31T03:43:54;10.90;95.60
26707;DHT22;14319;49.422;10.934;2023-10-31T03:45:54;11.10;96.80
26707;DHT22;14319;49.422;10.934;2023-10-31T03:47:55;11.20;95.20
26707;DHT22;14319;49.422;10.934;2023-10-31T03:49:56;11.20;94.40
26707;DHT22;14319;49.422;10.934;2023-10-31T03:51:57;11.10;95.60
26707;DHT22;14319;49.422;10.934;2023-10-31T03:53:57;11.20;94.80
26707;DHT22;14319;49.422;10.934;2023-10-31T03:56:01;11.20;93.90
26707;DHT22;14319;49.422;10.934;2023-10-31T03:58:02;11.20;95.70
26707;DHT22;14319;49.422;10.934;2023-10-31T04:00:03;11.10;94.00
26707;DHT22;14319;49.422;10.934;2023-10-31T04:02:13;10.90;95.30
26707;DHT22;14319;49.422;10.934;2023-10-31T04:04:14;10.90;96.30
26707;DHT22;14319;49.422;10.934;2023-10-31T04:06:15;11.00;95.20
26707;DHT22;14319;49.422;10.934;2023-10-31T04:08:17;11.10;97.40
26707;DHT22;14319;49.422;10.934;2023-10-31T04:10:18;11.30;95.80
26707;DHT22;14319;49.422;10.934;2023-10-31T04:12:19;11.30;96.00
26707;DHT22;14319;49.422;10.934;2023-10-31T04:14:19;11.30;95.50
26707;DHT22;14319;49.422;10.934;2023-10-31T04:16:20;11.30;94.60
26707;DHT22;14319;49.422;10.934;2023-10-31T04:18:20;11.20;95.50
26707;DHT22;14319;49.422;10.934;2023-10-31T04:20:21;11.30;96.20
26707;DHT22;14319;49.422;10.934;2023-10-31T04:22:22;11.30;92.60
26707;DHT22;14319;49.422;10.934;2023-10-31T04:24:22;11.30;94.30
26707;DHT22;14319;49.422;10.934;2023-10-31T04:26:23;11.40;95.70
26707;DHT22;14319;49.422;10.934;2023-10-31T04:28:23;11.20;92.40
26707;DHT22;14319;49.422;10.934;2023-10-31T04:30:24;11.30;93.70
26707;DHT22;14319;49.422;10.934;2023-10-31T04:32:25;11.10;94.40
26707;DHT22;14319;49.422;10.934;2023-10-31T04:34:25;11.00;93.20
26707;DHT22;14319;49.422;10.934;2023-10-31T04:36:26;11.00;95.20
26707;DHT22;14319;49.422;10.934;2023-10-31T04:38:26;11.00;94.90
26707;DHT22;14319;49.422;10.934;2023-10-31T04:40:27;11.10;94.00
26707;DHT22;14319;49.422;10.934;2023-10-31T04:42:27;11.10;95.10
26707;DHT22;14319;49.422;10.934;2023-10-31T04:44:28;11.20;95.00
26707;DHT22;14319;49.422;10.934;2023-10-31T04:46:28;11.20;94.60
26707;DHT22;14319;49.422;10.934;2023-10-31T04:48:29;11.20;92.80
26707;DHT22;14319;49.422;10.934;2023-10-31T04:50:30;11.10;92.90
26707;DHT22;14319;49.422;10.934;2023-10-31T04:52:30;11.20;93.90
26707;DHT22;14319;49.422;10.934;2023-10-31T04:54:31;11.10;91.40
26707;DHT22;14319;49.422;10.934;2023-10-31T04:56:32;11.00;93.00
26707;DHT22;14319;49.422;10.934;2023-10-31T04:58:33;11.10;93.30
26707;DHT22;14319;49.422;10.934;2023-10-31T05:00:34;11.00;92.60
26707;DHT22;14319;49.422;10.934;2023-10-31T05:02:34;11.10;94.40
26707;DHT22;14319;49.422;10.934;2023-10-31T05:04:38;11.00;91.70
26707;DHT22;14319;49.422;10.934;2023-10-31T05:06:39;11.00;94.00
26707;DHT22;14319;49.422;10.934;2023-10-31T05:08:40;11.00;93.10
26707;DHT22;14319;49.422;10.934;2023-10-31T05:10:41;11.10;93.30
26707;DHT22;14319;49.422;10.934;2023-10-31T05:12:42;11.20;91.60
26707;DHT22;14319;49.422;10.934;2023-10-31T05:14:42;11.00;92.40
26707;DHT22;14319;49.422;10.934;2023-10-31T05:16:43;11.00;91.10
26707;DHT22;14319;49.422;10.934;2023-10-31T05:18:44;11.10;92.10
26707;DHT22;14319;49.422;10.934;2023-10-31T05:20:44;10.90;90.70
26707;DHT22;14319;49.422;10.934;2023-10-31T05:22:45;10.90;93.40
26707;DHT22;14319;49.422;10.934;2023-10-31T05:24:45;10.90;91.20
26707;DHT22;14319;49.422;10.934;2023-10-31T05:26:46;11.00;92.60
26707;DHT22;14319;49.422;10.934;2023-10-31T05:28:46;11.10;92.20
26707;DHT22;14319;49.422;10.934;2023-10-31T05:30:47;11.10;90.60
26707;DHT22;14319;49.422;10.934;2023-10-31T05:32:49;10.90;89.70
26707;DHT22;14319;49.422;10.934;2023-10-31T05:34:50;10.90;91.10
26707;DHT22;14319;49.422;10.934;2023-10-31T05:36:50;10.80;89.70
26707;DHT22;14319;49.422;10.934;2023-10-31T05:38:51;10.90;91.90
26707;DHT22;14319;49.422;10.934;2023-10-31T05:40:52;10.70;90.80
26707;DHT22;14319;49.422;10.934;2023-10-31T05:42:52;10.90;91.80
26707;DHT22;14319;49.422;10.934;2023-10-31T05:44:54;10.90;90.00
26707;DHT22;14319;49.422;10.934;2023-10-31T05:46:55;10.80;89.20
26707;DHT22;14319;49.422;10.934;2023-10-31T05:48:55;10.70;89.80
26707;DHT22;14319;49.422;10.934;2023-10-31T05:50:56;10.60;91.10
26707;DHT22;14319;49.422;10.934;2023-10-31T05:52:56;10.70;90.20
26707;DHT22;14319;49.422;10.934;2023-10-31T05:54:57;10.60;89.20
26707;DHT22;14319;49.422;10.934;2023-10-31T05:56:58;10.70;90.80
26707;DHT22;14319;49.422;10.934;2023-10-31T05:58:58;10.60;89.60
26707;DHT22;14319;49.422;10.934;2023-10-31T06:00:59;10.50;90.50
26707;DHT22;14319;49.422;10.934;2023-10-31T06:03:00;10.40;90.00
26707;DHT22;14319;49.422;10.934;2023-10-31T06:05:00;10.50;90.70
26707;DHT22;14319;49.422;10.934;2023-10-31T06:07:01;10.50;91.20
26707;DHT22;14319;49.422;10.934;2023-10-31T06:09:03;10.50;91.50
26707;DHT22;14319;49.422;10.934;2023-10-31T06:11:04;10.50;90.30
26707;DHT22;14319;49.422;10.934;2023-10-31T06:13:05;10.40;90.20
26707;DHT22;14319;49.422;10.934;2023-10-31T06:15:06;10.40;90.80
26707;DHT22;14319;49.422;10.934;2023-10-31T06:17:08;10.40;90.50
26707;DHT22;14319;49.422;10.934;2023-10-31T06:19:09;10.50;90.80
26707;DHT22;14319;49.422;10.934;2023-10-31T06:21:10;10.50;91.20
26707;DHT22;14319;49.422;10.934;2023-10-31T06:23:10;10.50;90.10
26707;DHT22;14319;49.422;10.934;2023-10-31T06:25:11;10.50;91.00
26707;DHT22;14319;49.422;10.934;2023-10-31T06:27:12;10.50;89.70
26707;DHT22;14319;49.422;10.934;2023-10-31T06:29:12;10.60;90.90
26707;DHT22;14319;49.422;10.934;2023-10-31T06:31:13;10.60;89.60
26707;DHT22;14319;49.422;10.934;2023-10-31T06:33:13;10.70;91.30
26707;DHT22;14319;49.422;10.934;2023-10-31T06:35:14;10.70;89.20
26707;DHT22;14319;49.422;10.934;2023-10-31T06:37:14;10.50;89.80
26707;DHT22;14319;49.422;10.934;2023-10-31T06:39:16;10.40;91.20
26707;DHT22;14319;49.422;10.934;2023-10-31T06:41:16;10.60;90.50
26707;DHT22;14319;49.422;10.934;2023-10-31T06:43:17;10.40;90.40
26707;DHT22;14319;49.422;10.934;2023-10-31T06:45:17;10.50;90.60
26707;DHT22;14319;49.422;10.934;2023-10-31T06:47:18;10.70;90.50
26707;DHT22;14319;49.422;10.934;2023-10-31T06:49:18;10.60;89.30
26707;DHT22;14319;49.422;10.934;2023-10-31T06:51:21;10.60;90.30
26707;DHT22;14319;49.422;10.934;2023-10-31T06:53:21;10.60;89.60
26707;DHT22;14319;49.422;10.934;2023-10-31T06:55:22;10.60;90.50
26707;DHT22;14319;49.422;10.934;2023-10-31T06:57:22;10.70;89.50
26707;DHT22;14319;49.422;10.934;2023-10-31T06:59:23;10.80;89.90
26707;DHT22;14319;49.422;10.934;2023-10-31T07:01:23;10.80;88.20
26707;DHT22;14319;49.422;10.934;2023-10-31T07:03:24;10.80;87.80
26707;DHT22;14319;49.422;10.934;2023-10-31T07:05:25;10.90;90.10
26707;DHT22;14319;49.422;10.934;2023-10-31T07:07:25;11.00;88.10
26707;DHT22;14319;49.422;10.934;2023-10-31T07:09:26;11.00;88.70
26707;DHT22;14319;49.422;10.934;2023-10-31T07:11:27;10.90;88.00
26707;DHT22;14319;49.422;10.934;2023-10-31T07:13:30;11.00;89.10
26707;DHT22;14319;49.422;10.934;2023-10-31T07:15:30;11.00;88.00
26707;DHT22;14319;49.422;10.934;2023-10-31T07:17:31;11.00;89.50
26707;DHT22;14319;49.422;10.934;2023-10-31T07:19:32;11.10;88.90
26707;DHT22;14319;49.422;10.934;2023-10-31T07:21:32;11.10;87.70
26707;DHT22;14319;49.422;10.934;2023-10-31T07:23:33;11.00;87.10
26707;DHT22;14319;49.422;10.934;2023-10-31T07:25:33;10.90;88.40
26707;DHT22;14319;49.422;10.934;2023-10-31T07:27:34;10.90;88.20
26707;DHT22;14319;49.422;10.934;2023-10-31T07:29:34;11.00;88.40
26707;DHT22;14319;49.422;10.934;2023-10-31T07:31:35;11.10;87.90
26707;DHT22;14319;49.422;10.934;2023-10-31T07:33:39;11.00;86.90
26707;DHT22;14319;49.422;10.934;2023-10-31T07:35:39;10.90;87.60
26707;DHT22;14319;49.422;10.934;2023-10-31T07:37:40;11.00;87.70
26707;DHT22;14319;49.422;10.934;2023-10-31T07:39:40;10.90;86.70
26707;DHT22;14319;49.422;10.934;2023-10-31T07:41:42;10.90;87.50
26707;DHT22;14319;49.422;10.934;2023-10-31T07:43:44;10.90;87.20
26707;DHT22;14319;49.422;10.934;2023-10-31T07:45:45;11.00;88.50
26707;DHT22;14319;49.422;10.934;2023-10-31T07:47:45;10.80;86.80
26707;DHT22;14319;49.422;10.934;2023-10-31T07:49:46;10.90;89.10
26707;DHT22;14319;49.422;10.934;2023-10-31T07:51:47;10.80;86.80
26707;DHT22;14319;49.422;10.934;2023-10-31T07:53:48;11.00;87.40
26707;DHT22;14319;49.422;10.934;2023-10-31T07:55:49;10.80;86.80
26707;DHT22;14319;49.422;10.934;2023-10-31T07:57:50;10.90;87.50
26707;DHT22;14319;49.422;10.934;2023-10-31T07:59:50;10.90;88.00
26707;DHT22;14319;49.422;10.934;2023-10-31T08:01:51;11.10;86.50
26707;DHT22;14319;49.422;10.934;2023-10-31T08:03:52;11.10;87.80
26707;DHT22;14319;49.422;10.934;2023-10-31T08:05:53;11.10;85.40
26707;DHT22;14319;49.422;10.934;2023-10-31T08:07:53;11.10;85.10
26707;DHT22;14319;49.422;10.934;2023-10-31T08:09:54;11.20;87.40
26707;DHT22;14319;49.422;10.934;2023-10-31T08:11:54;11.20;87.30
26707;DHT22;14319;49.422;10.934;2023-10-31T08:13:55;11.30;86.90
26707;DHT22;14319;49.422;10.934;2023-10-31T08:15:56;11.40;86.90
26707;DHT22;14319;49.422;10.934;2023-10-31T08:17:56;11.30;85.00
26707;DHT22;14319;49.422;10.934;2023-10-31T08:19:57;11.20;85.80
26707;DHT22;14319;49.422;10.934;2023-10-31T08:21:57;11.40;86.60
26707;DHT22;14319;49.422;10.934;2023-10-31T08:23:58;11.40;86.10
26707;DHT22;14319;49.422;10.934;2023-10-31T08:25:58;11.20;84.90
26707;DHT22;14319;49.422;10.934;2023-10-31T08:27:59;11.10;86.70
26707;DHT22;14319;49.422;10.934;2023-10-31T08:30:00;11.10;86.40
26707;DHT22;14319;49.422;10.934;2023-10-31T08:32:00;11.00;86.30
26707;DHT22;14319;49.422;10.934;2023-10-31T08:34:01;11.10;87.00
26707;DHT22;14319;49.422;10.934;2023-10-31T08:36:02;11.20;87.20
26707;DHT22;14319;49.422;10.934;2023-10-31T08:38:02;11.30;87.40
26707;DHT22;14319;49.422;10.934;2023-10-31T08:42:07;11.40;86.70
26707;DHT22;14319;49.422;10.934;2023-10-31T08:44:08;11.50;87.30
26707;DHT22;14319;49.422;10.934;2023-10-31T08:46:09;11.50;87.30
26707;DHT22;14319;49.422;10.934;2023-10-31T08:48:09;11.70;86.90
26707;DHT22;14319;49.422;10.934;2023-10-31T08:50:10;11.60;85.10
26707;DHT22;14319;49.422;10.934;2023-10-31T08:52:11;11.70;86.10
26707;DHT22;14319;49.422;10.934;2023-10-31T08:54:12;11.50;84.30
26707;DHT22;14319;49.422;10.934;2023-10-31T08:56:12;11.50;85.80
26707;DHT22;14319;49.422;10.934;2023-10-31T08:58:13;11.60;85.60
26707;DHT22;14319;49.422;10.934;2023-10-31T09:00:15;11.50;85.30
26707;DHT22;14319;49.422;10.934;2023-10-31T09:02:16;11.40;86.70
26707;DHT22;14319;49.422;10.934;2023-10-31T09:04:17;11.30;86.80
26707;DHT22;14319;49.422;10.934;2023-10-31T09:06:17;11.10;87.40
26707;DHT22;14319;49.422;10.934;2023-10-31T09:08:18;11.20;87.30
26707;DHT22;14319;49.422;10.934;2023-10-31T09:10:18;11.30;88.70
26707;DHT22;14319;49.422;10.934;2023-10-31T09:12:19;11.30;90.20
26707;DHT22;14319;49.422;10.934;2023-10-31T09:14:20;11.30;89.50
26707;DHT22;14319;49.422;10.934;2023-10-31T09:16:21;10.60;93.40
26707;DHT22;14319;49.422;10.934;2023-10-31T09:18:21;10.70;93.70
26707;DHT22;14319;49.422;10.934;2023-10-31T09:20:22;10.80;94.60
26707;DHT22;14319;49.422;10.934;2023-10-31T09:22:22;10.80;94.90
26707;DHT22;14319;49.422;10.934;2023-10-31T09:24:23;10.70;95.40
26707;DHT22;14319;49.422;10.934;2023-10-31T09:26:24;10.80;95.40
26707;DHT22;14319;49.422;10.934;2023-10-31T09:28:25;10.90;95.30
26707;DHT22;14319;49.422;10.934;2023-10-31T09:30:25;11.00;94.90
26707;DHT22;14319;49.422;10.934;2023-10-31T09:32:26;10.90;93.60
26707;DHT22;14319;49.422;10.934;2023-10-31T09:34:27;10.90;96.00
26707;DHT22;14319;49.422;10.934;2023-10-31T09:36:27;10.70;94.70
26707;DHT22;14319;49.422;10.934;2023-10-31T09:38:28;10.70;95.10
26707;DHT22;14319;49.422;10.934;2023-10-31T09:40:29;10.70;95.10
26707;DHT22;14319;49.422;10.934;2023-10-31T09:42:30;10.50;95.30
26707;DHT22;14319;49.422;10.934;2023-10-31T09:44:30;10.70;96.40
26707;DHT22;14319;49.422;10.934;2023-10-31T09:46:31;10.80;95.70
26707;DHT22;14319;49.422;10.934;2023-10-31T09:48:32;10.80;95.60
26707;DHT22;14319;49.422;10.934;2023-10-31T09:50:33;10.80;96.00
26707;DHT22;14319;49.422;10.934;2023-10-31T09:52:35;11.00;95.90
26707;DHT22;14319;49.422;10.934;2023-10-31T09:54:37;10.90;95.00
26707;DHT22;14319;49.422;10.934;2023-10-31T09:56:38;11.10;94.80
26707;DHT22;14319;49.422;10.934;2023-10-31T09:58:39;11.10;93.30
26707;DHT22;14319;49.422;10.934;2023-10-31T10:00:41;11.20;95.30
26707;DHT22;14319;49.422;10.934;2023-10-31T10:02:42;11.30;93.80
26707;DHT22;14319;49.422;10.934;2023-10-31T10:04:42;11.20;93.60
26707;DHT22;14319;49.422;10.934;2023-10-31T10:07:01;11.30;94.60
26707;DHT22;14319;49.422;10.934;2023-10-31T10:09:02;11.40;92.40
26707;DHT22;14319;49.422;10.934;2023-10-31T10:11:05;11.50;92.10
26707;DHT22;14319;49.422;10.934;2023-10-31T10:13:06;11.50;92.20
26707;DHT22;14319;49.422;10.934;2023-10-31T10:15:08;11.40;92.40
26707;DHT22;14319;49.422;10.934;2023-10-31T10:17:16;11.40;92.60
26707;DHT22;14319;49.422;10.934;2023-10-31T10:19:18;11.40;92.90
26707;DHT22;14319;49.422;10.934;2023-10-31T10:21:19;11.40;92.60
26707;DHT22;14319;49.422;10.934;2023-10-31T10:23:20;11.30;91.00
26707;DHT22;14319;49.422;10.934;2023-10-31T10:25:21;11.40;93.40
26707;DHT22;14319;49.422;10.934;2023-10-31T10:27:21;11.60;91.40
26707;DHT22;14319;49.422;10.934;2023-10-31T10:29:23;11.50;90.90
26707;DHT22;14319;49.422;10.934;2023-10-31T10:31:24;11.60;91.30
26707;DHT22;14319;49.422;10.934;2023-10-31T10:33:24;11.60;90.60
26707;DHT22;14319;49.422;10.934;2023-10-31T10:35:25;11.50;88.70
26707;DHT22;14319;49.422;10.934;2023-10-31T10:37:26;11.50;89.40
26707;DHT22;14319;49.422;10.934;2023-10-31T10:39:28;11.60;90.80
26707;DHT22;14319;49.422;10.934;2023-10-31T10:41:29;11.70;89.70
26707;DHT22;14319;49.422;10.934;2023-10-31T10:43:31;11.70;88.70
26707;DHT22;14319;49.422;10.934;2023-10-31T10:45:38;11.60;89.30
26707;DHT22;14319;49.422;10.934;2023-10-31T10:47:48;11.60;89.00
26707;DHT22;14319;49.422;10.934;2023-10-31T10:49:52;11.60;88.40
26707;DHT22;14319;49.422;10.934;2023-10-31T10:52:22;11.60;89.90
26707;DHT22;14319;49.422;10.934;2023-10-31T10:54:35;11.60;88.50
26707;DHT22;14319;49.422;10.934;2023-10-31T10:56:48;11.60;87.70
26707;DHT22;14319;49.422;10.934;2023-10-31T10:59:14;11.70;89.30
26707;DHT22;14319;49.422;10.934;2023-10-31T11:01:16;11.80;89.00
26707;DHT22;14319;49.422;10.934;2023-10-31T11:03:19;11.90;88.10
26707;DHT22;14319;49.422;10.934;2023-10-31T11:05:20;11.90;87.20
26707;DHT22;14319;49.422;10.934;2023-10-31T11:07:22;11.70;86.20
26707;DHT22;14319;49.422;10.934;2023-10-31T11:09:25;11.70;87.30
26707;DHT22;14319;49.422;10.934;2023-10-31T11:11:26;11.70;86.30
26707;DHT22;14319;49.422;10.934;2023-10-31T11:13:27;11.60;85.40
26707;DHT22;14319;49.422;10.934;2023-10-31T11:15:28;11.70;87.20
26707;DHT22;14319;49.422;10.934;2023-10-31T11:17:36;11.90;86.90
26707;DHT22;14319;49.422;10.934;2023-10-31T11:19:37;12.00;85.60
26707;DHT22;14319;49.422;10.934;2023-10-31T11:21:53;11.90;86.00
26707;DHT22;14319;49.422;10.934;2023-10-31T11:23:58;11.80;86.50
26707;DHT22;14319;49.422;10.934;2023-10-31T11:26:00;11.90;85.00
26707;DHT22;14319;49.422;10.934;2023-10-31T11:28:12;12.00;85.80
26707;DHT22;14319;49.422;10.934;2023-10-31T11:32:26;11.90;83.70
26707;DHT22;14319;49.422;10.934;2023-10-31T11:34:28;11.80;84.30
26707;DHT22;14319;49.422;10.934;2023-10-31T11:36:32;11.90;85.50
26707;DHT22;14319;49.422;10.934;2023-10-31T11:38:37;11.80;83.70
26707;DHT22;14319;49.422;10.934;2023-10-31T11:42:52;11.80;85.80
26707;DHT22;14319;49.422;10.934;2023-10-31T11:44:55;11.90;85.00
26707;DHT22;14319;49.422;10.934;2023-10-31T11:46:58;11.80;85.80
26707;DHT22;14319;49.422;10.934;2023-10-31T11:48:59;11.80;86.30
26707;DHT22;14319;49.422;10.934;2023-10-31T11:51:05;11.90;86.20
26707;DHT22;14319;49.422;10.934;2023-10-31T11:53:10;11.90;85.10
26707;DHT22;14319;49.422;10.934;2023-10-31T11:55:14;11.80;86.60
26707;DHT22;14319;49.422;10.934;2023-10-31T11:57:27;11.90;85.60
26707;DHT22;14319;49.422;10.934;2023-10-31T11:59:36;11.90;87.50
26707;DHT22;14319;49.422;10.934;2023-10-31T12:01:47;11.90;86.30
26707;DHT22;14319;49.422;10.934;2023-10-31T12:03:47;11.90;85.80
26707;DHT22;14319;49.422;10.934;2023-10-31T12:05:56;11.80;85.90
26707;DHT22;14319;49.422;10.934;2023-10-31T12:07:57;11.70;87.30
26707;DHT22;14319;49.422;10.934;2023-10-31T12:09:57;11.70;87.00
26707;DHT22;14319;49.422;10.934;2023-10-31T12:11:58;11.80;87.10
26707;DHT22;14319;49.422;10.934;2023-10-31T12:14:00;11.90;86.00
26707;DHT22;14319;49.422;10.934;2023-10-31T12:16:02;11.90;86.40
26707;DHT22;14319;49.422;10.934;2023-10-31T12:18:03;11.80;85.20
26707;DHT22;14319;49.422;10.934;2023-10-31T12:20:05;11.90;86.10
26707;DHT22;14319;49.422;10.934;2023-10-31T12:22:14;12.00;85.80
26707;DHT22;14319;49.422;10.934;2023-10-31T12:24:17;12.10;85.50
26707;DHT22;14319;49.422;10.934;2023-10-31T12:26:21;12.10;85.40
26707;DHT22;14319;49.422;10.934;2023-10-31T12:28:24;12.10;84.40
26707;DHT22;14319;49.422;10.934;2023-10-31T12:30:25;11.90;84.70
26707;DHT22;14319;49.422;10.934;2023-10-31T12:32:25;11.80;84.50
26707;DHT22;14319;49.422;10.934;2023-10-31T12:34:26;11.90;86.10
26707;DHT22;14319;49.422;10.934;2023-10-31T12:36:27;12.10;84.20
26707;DHT22;14319;49.422;10.934;2023-10-31T12:38:28;12.30;83.80
26707;DHT22;14319;49.422;10.934;2023-10-31T12:40:30;12.30;83.60